createdAt,value
2019-04-07T00:00:12.228Z,98655.19
2019-04-07T00:02:40.782Z,98655.59
2019-04-07T00:05:12.520Z,98657.91
2019-04-07T00:07:39.091Z,98655.16
2019-04-07T00:10:08.412Z,98656.88
2019-04-07T00:12:36.952Z,98662.10
2019-04-07T00:15:06.961Z,98660.80
2019-04-07T00:17:35.064Z,98662.80
2019-04-07T00:20:04.197Z,98662.30
2019-04-07T00:22:32.403Z,98667.53
2019-04-07T00:25:00.751Z,98665.89
2019-04-07T00:27:28.855Z,98658.05
2019-04-07T00:29:57.899Z,98660.19
2019-04-07T00:32:26.274Z,98665.52
2019-04-07T00:34:54.306Z,98673.16
2019-04-07T00:37:22.985Z,98670.55
2019-04-07T00:39:51.569Z,98668.87
2019-04-07T00:42:20.334Z,98672.89
2019-04-07T00:44:48.594Z,98670.78
2019-04-07T00:47:16.557Z,98676.30
2019-04-07T00:49:45.078Z,98670.58
2019-04-07T00:52:14.517Z,98674.80
2019-04-07T00:54:42.640Z,98675.43
2019-04-07T00:57:10.966Z,98676.23
2019-04-07T00:59:39.699Z,98683.37
2019-04-07T01:02:07.849Z,98689.91
2019-04-07T01:04:36.448Z,98689.70
2019-04-07T01:07:04.861Z,98684.68
2019-04-07T01:09:34.081Z,98685.08
2019-04-07T01:12:02.853Z,98683.60
2019-04-07T01:14:31.436Z,98681.80
2019-04-07T01:17:00.329Z,98693.16
2019-04-07T01:19:29.030Z,98692.48
2019-04-07T01:21:57.035Z,98694.69
2019-04-07T01:24:25.222Z,98691.88
2019-04-07T01:26:53.712Z,98698.91
2019-04-07T01:29:22.112Z,98693.38
2019-04-07T01:31:50.617Z,98689.16
2019-04-07T01:34:18.740Z,98696.80
2019-04-07T01:36:47.138Z,98687.95
2019-04-07T01:39:16.887Z,98687.45
2019-04-07T01:42:04.962Z,98694.62
2019-04-07T01:44:55.095Z,98685.13
2019-04-07T01:47:32.089Z,98692.50
2019-04-07T01:50:18.594Z,98691.38
2019-04-07T01:52:54.738Z,98694.48
2019-04-07T01:55:52.084Z,98697.00
2019-04-07T01:58:55.075Z,98693.69
2019-04-07T02:01:38.501Z,98694.19
2019-04-07T02:04:35.826Z,98701.03
2019-04-07T02:07:11.895Z,98682.42
2019-04-07T02:09:58.642Z,98686.95
2019-04-07T02:12:49.791Z,98681.55
2019-04-07T02:15:42.207Z,98680.23
2019-04-07T02:18:22.470Z,98677.72
2019-04-07T02:21:00.906Z,98678.82
2019-04-07T02:24:01.044Z,98683.75
2019-04-07T02:26:46.435Z,98683.45
2019-04-07T02:29:32.471Z,98684.35
2019-04-07T02:32:27.580Z,98683.55
2019-04-07T02:35:07.575Z,98681.73
2019-04-07T02:37:50.368Z,98684.86
2019-04-07T02:40:31.287Z,98690.52
2019-04-07T02:43:12.445Z,98687.49
2019-04-07T02:46:09.676Z,98689.53
2019-04-07T02:48:59.922Z,98687.81
2019-04-07T02:51:42.169Z,98686.84
2019-04-07T02:54:43.232Z,98685.33
2019-04-07T02:57:36.384Z,98687.53
2019-04-07T03:00:22.886Z,98683.61
2019-04-07T03:03:17.148Z,98684.91
2019-04-07T03:06:02.414Z,98682.50
2019-04-07T03:08:59.411Z,98686.42
2019-04-07T03:11:42.913Z,98688.23
2019-04-07T03:14:31.568Z,98693.06
2019-04-07T03:17:12.281Z,98695.51
2019-04-07T03:20:03.063Z,98699.23
2019-04-07T03:22:53.274Z,98702.74
2019-04-07T03:25:49.967Z,98704.46
2019-04-07T03:28:49.453Z,98706.14
2019-04-07T03:31:29.172Z,98710.48
2019-04-07T03:34:08.956Z,98707.34
2019-04-07T03:37:16.913Z,98707.54
2019-04-07T03:39:42.361Z,98705.43
2019-04-07T03:42:26.120Z,98698.38
2019-04-07T03:45:00.673Z,98697.58
2019-04-07T03:47:42.094Z,98698.69
2019-04-07T03:50:15.072Z,98695.66
2019-04-07T03:53:15.783Z,98698.70
2019-04-07T03:55:53.464Z,98696.19
2019-04-07T03:58:39.985Z,98694.88
2019-04-07T04:01:31.023Z,98692.26
2019-04-07T04:04:19.040Z,98694.28
2019-04-07T04:07:28.426Z,98694.98
2019-04-07T04:09:52.567Z,98695.99
2019-04-07T04:12:34.290Z,98702.03
2019-04-07T04:15:08.818Z,98703.13
2019-04-07T04:17:37.066Z,98701.02
2019-04-07T04:20:06.234Z,98700.09
2019-04-07T04:22:34.263Z,98707.64
2019-04-07T04:25:02.906Z,98698.77
2019-04-07T04:27:31.502Z,98704.91
2019-04-07T04:29:59.535Z,98699.74
2019-04-07T04:32:28.831Z,98705.48
2019-04-07T04:34:57.524Z,98705.68
2019-04-07T04:37:36.184Z,98705.08
2019-04-07T04:39:55.883Z,98708.20
2019-04-07T04:42:25.035Z,98711.19
2019-04-07T04:44:54.292Z,98714.50
2019-04-07T04:47:23.230Z,98708.17
2019-04-07T04:49:52.663Z,98712.77
2019-04-07T04:52:22.055Z,98713.17
2019-04-07T04:54:50.051Z,98716.45
2019-04-07T04:57:18.085Z,98726.11
2019-04-07T04:59:46.591Z,98725.31
2019-04-07T05:02:14.723Z,98727.25
2019-04-07T05:04:42.724Z,98729.53
2019-04-07T05:07:11.314Z,98727.62
2019-04-07T05:09:46.219Z,98734.66
2019-04-07T05:12:10.087Z,98742.20
2019-04-07T05:14:38.802Z,98740.79
2019-04-07T05:17:07.386Z,98741.47
2019-04-07T05:19:35.631Z,98743.41
2019-04-07T05:22:03.812Z,98750.24
2019-04-07T05:24:32.578Z,98749.84
2019-04-07T05:27:01.006Z,98759.60
2019-04-07T05:29:29.122Z,98756.02
2019-04-07T05:31:57.241Z,98755.81
2019-04-07T05:34:25.730Z,98759.03
2019-04-07T05:36:54.505Z,98764.39
2019-04-07T05:39:22.995Z,98766.61
2019-04-07T05:41:51.035Z,98762.18
2019-04-07T05:44:19.028Z,98757.55
2019-04-07T05:46:49.569Z,98764.83
2019-04-07T05:49:18.634Z,98763.12
2019-04-07T05:51:47.983Z,98767.98
2019-04-07T05:54:18.078Z,98772.94
2019-04-07T05:56:46.004Z,98775.78
2019-04-07T05:59:14.989Z,98778.90
2019-04-07T06:01:44.388Z,98777.02
2019-04-07T06:04:16.743Z,98784.59
2019-04-07T06:06:42.778Z,98774.95
2019-04-07T06:09:11.214Z,98778.70
2019-04-07T06:11:40.041Z,98772.38
2019-04-07T06:14:08.498Z,98782.27
2019-04-07T06:16:36.740Z,98785.07
2019-04-07T06:19:08.099Z,98785.59
2019-04-07T06:21:36.625Z,98789.03
2019-04-07T06:24:04.839Z,98791.66
2019-04-07T06:26:33.102Z,98786.64
2019-04-07T06:29:01.615Z,98783.77
2019-04-07T06:31:32.808Z,98775.91
2019-04-07T06:33:59.892Z,98780.65
2019-04-07T06:36:28.748Z,98780.14
2019-04-07T06:38:57.103Z,98782.47
2019-04-07T06:41:30.116Z,98777.53
2019-04-07T06:44:08.299Z,98781.75
2019-04-07T06:46:34.093Z,98781.16
2019-04-07T06:49:12.341Z,98785.67
2019-04-07T06:51:46.950Z,98789.39
2019-04-07T06:54:40.583Z,98785.06
2019-04-07T06:57:28.334Z,98795.42
2019-04-07T07:00:15.165Z,98792.92
2019-04-07T07:03:06.118Z,98801.47
2019-04-07T07:06:05.843Z,98805.30
2019-04-07T07:08:55.655Z,98802.25
2019-04-07T07:11:38.451Z,98809.73
2019-04-07T07:14:34.921Z,98815.36
2019-04-07T07:17:23.108Z,98815.27
2019-04-07T07:20:05.645Z,98819.18
2019-04-07T07:22:41.839Z,98814.93
2019-04-07T07:25:12.372Z,98820.55
2019-04-07T07:27:42.750Z,98825.59
2019-04-07T07:30:12.052Z,98828.92
2019-04-07T07:32:40.965Z,98822.26
2019-04-07T07:35:12.706Z,98822.92
2019-04-07T07:37:40.175Z,98823.92
2019-04-07T07:40:09.823Z,98825.03
2019-04-07T07:42:38.246Z,98827.63
2019-04-07T07:45:10.921Z,98828.72
2019-04-07T07:47:37.226Z,98830.09
2019-04-07T07:50:07.757Z,98826.80
2019-04-07T07:52:35.715Z,98827.43
2019-04-07T07:55:05.834Z,98832.75
2019-04-07T07:57:33.924Z,98828.33
2019-04-07T08:00:04.567Z,98833.94
2019-04-07T08:02:32.172Z,98826.37
2019-04-07T08:05:00.651Z,98832.33
2019-04-07T08:07:28.906Z,98828.50
2019-04-07T08:09:58.075Z,98838.42
2019-04-07T08:12:28.078Z,98833.05
2019-04-07T08:14:57.731Z,98835.77
2019-04-07T08:17:27.057Z,98843.54
2019-04-07T08:19:55.790Z,98839.73
2019-04-07T08:22:30.696Z,98846.47
2019-04-07T08:24:54.554Z,98845.19
2019-04-07T08:27:23.958Z,98843.72
2019-04-07T08:29:53.514Z,98842.97
2019-04-07T08:32:22.645Z,98844.38
2019-04-07T08:34:51.600Z,98847.35
2019-04-07T08:37:20.048Z,98850.81
2019-04-07T08:39:48.600Z,98848.73
2019-04-07T08:42:18.786Z,98857.34
2019-04-07T08:44:47.358Z,98857.77
2019-04-07T08:47:20.799Z,98859.97
2019-04-07T08:49:47.019Z,98862.09
2019-04-07T08:52:15.344Z,98853.94
2019-04-07T08:54:43.410Z,98860.59
2019-04-07T08:57:11.452Z,98867.70
2019-04-07T08:59:43.015Z,98863.45
2019-04-07T09:02:11.382Z,98863.45
2019-04-07T09:04:41.286Z,98871.42
2019-04-07T09:07:10.294Z,98863.74
2019-04-07T09:09:44.994Z,98870.44
2019-04-07T09:12:09.290Z,98868.70
2019-04-07T09:14:39.703Z,98867.46
2019-04-07T09:17:35.449Z,98874.20
2019-04-07T09:20:10.906Z,98873.03
2019-04-07T09:23:20.202Z,98875.28
2019-04-07T09:26:12.028Z,98875.29
2019-04-07T09:28:51.461Z,98865.12
2019-04-07T09:31:37.345Z,98869.59
2019-04-07T09:34:26.253Z,98870.81
2019-04-07T09:37:13.539Z,98875.86
2019-04-07T09:39:59.140Z,98877.09
2019-04-07T09:43:00.227Z,98876.70
2019-04-07T09:45:45.876Z,98876.56
2019-04-07T09:48:34.461Z,98877.70
2019-04-07T09:51:25.454Z,98874.63
2019-04-07T09:54:01.363Z,98881.64
2019-04-07T09:56:40.677Z,98880.45
2019-04-07T09:59:20.673Z,98881.59
2019-04-07T10:02:11.471Z,98879.73
2019-04-07T10:05:02.016Z,98882.27
2019-04-07T10:07:59.370Z,98883.02
2019-04-07T10:10:49.443Z,98885.27
2019-04-07T10:13:36.780Z,98882.75
2019-04-07T10:16:24.625Z,98885.52
2019-04-07T10:19:11.043Z,98886.20
2019-04-07T10:22:07.318Z,98883.92
2019-04-07T10:24:59.097Z,98887.45
2019-04-07T10:27:40.705Z,98891.00
2019-04-07T10:30:36.007Z,98884.38
2019-04-07T10:33:24.378Z,98889.33
2019-04-07T10:36:15.921Z,98880.28
2019-04-07T10:39:03.130Z,98884.22
2019-04-07T10:41:55.263Z,98897.79
2019-04-07T10:44:42.343Z,98895.09
2019-04-07T10:47:30.412Z,98896.73
2019-04-07T10:50:18.555Z,98891.93
2019-04-07T10:52:56.180Z,98893.69
2019-04-07T10:55:49.700Z,98890.95
2019-04-07T10:58:27.931Z,98893.85
2019-04-07T11:01:06.381Z,98894.86
2019-04-07T11:04:03.941Z,98895.12
2019-04-07T11:06:59.392Z,98888.27
2019-04-07T11:09:45.188Z,98894.98
2019-04-07T11:12:41.241Z,98890.88
2019-04-07T11:15:28.076Z,98888.05
2019-04-07T11:18:07.635Z,98885.95
2019-04-07T11:20:57.234Z,98891.23
2019-04-07T11:23:36.491Z,98889.89
2019-04-07T11:26:24.124Z,98881.84
2019-04-07T11:29:12.141Z,98884.05
2019-04-07T11:32:00.379Z,98885.77
2019-04-07T11:34:51.384Z,98878.20
2019-04-07T11:37:38.634Z,98883.63
2019-04-07T11:40:25.219Z,98871.73
2019-04-07T11:43:20.740Z,98878.13
2019-04-07T11:46:07.120Z,98879.66
2019-04-07T11:48:45.097Z,98871.48
2019-04-07T11:51:35.857Z,98874.24
2019-04-07T11:54:16.482Z,98875.06
2019-04-07T11:57:06.985Z,98873.73
2019-04-07T11:59:54.190Z,98883.91
2019-04-07T12:02:33.074Z,98879.99
2019-04-07T12:05:15.901Z,98883.92
2019-04-07T12:08:03.211Z,98876.73
2019-04-07T12:11:01.719Z,98879.11
2019-04-07T12:13:44.898Z,98877.73
2019-04-07T12:16:35.298Z,98874.41
2019-04-07T12:19:35.263Z,98876.48
2019-04-07T12:22:19.429Z,98874.92
2019-04-07T12:25:07.162Z,98877.68
2019-04-07T12:28:14.616Z,98875.63
2019-04-07T12:30:45.168Z,98884.78
2019-04-07T12:33:32.937Z,98886.11
2019-04-07T12:36:11.823Z,98886.89
2019-04-07T12:38:58.569Z,98885.05
2019-04-07T12:41:34.550Z,98890.14
2019-04-07T12:44:25.437Z,98886.41
2019-04-07T12:47:22.495Z,98891.94
2019-04-07T12:50:10.581Z,98892.39
2019-04-07T12:53:02.195Z,98894.19
2019-04-07T12:55:49.947Z,98891.88
2019-04-07T12:58:31.241Z,98895.18
2019-04-07T13:01:28.184Z,98894.03
2019-04-07T13:04:19.030Z,98894.20
2019-04-07T13:07:04.386Z,98901.81
2019-04-07T13:09:54.882Z,98911.02
2019-04-07T13:12:45.479Z,98899.58
2019-04-07T13:15:31.452Z,98901.61
2019-04-07T13:18:11.816Z,98904.13
2019-04-07T13:20:56.540Z,98908.00
2019-04-07T13:23:39.847Z,98911.70
2019-04-07T13:26:32.371Z,98911.36
2019-04-07T13:29:23.690Z,98917.00
2019-04-07T13:32:17.523Z,98919.66
2019-04-07T13:35:05.859Z,98918.06
2019-04-07T13:38:02.797Z,98927.28
2019-04-07T13:41:03.008Z,98928.08
2019-04-07T13:43:44.948Z,98924.05
2019-04-07T13:46:44.997Z,98931.11
2019-04-07T13:49:31.808Z,98928.22
2019-04-07T13:52:31.254Z,98925.00
2019-04-07T13:55:10.425Z,98927.34
2019-04-07T13:57:55.638Z,98926.45
2019-04-07T14:00:35.087Z,98933.09
2019-04-07T14:03:23.347Z,98932.45
2019-04-07T14:06:00.018Z,98939.11
2019-04-07T14:08:49.499Z,98940.92
2019-04-07T14:12:04.241Z,98939.70
2019-04-07T14:14:48.370Z,98943.32
2019-04-07T14:17:45.017Z,98946.03
2019-04-07T14:20:38.733Z,98952.66
2019-04-07T14:23:25.254Z,98948.55
2019-04-07T14:26:25.769Z,98952.92
2019-04-07T14:29:12.030Z,98949.60
2019-04-07T14:31:53.527Z,98946.98
2019-04-07T14:34:44.357Z,98944.67
2019-04-07T14:37:31.842Z,98952.21
2019-04-07T14:40:26.255Z,98955.57
2019-04-07T14:43:09.790Z,98954.94
2019-04-07T14:45:57.966Z,98955.80
2019-04-07T14:48:45.759Z,98958.63
2019-04-07T14:51:31.852Z,98964.84
2019-04-07T14:54:29.243Z,98967.32
2019-04-07T14:57:09.447Z,98966.13
2019-04-07T14:59:47.411Z,98975.28
2019-04-07T15:02:15.796Z,98969.20
2019-04-07T15:04:54.467Z,98970.80
2019-04-07T15:07:35.105Z,98969.36
2019-04-07T15:10:25.281Z,98970.23
2019-04-07T15:13:05.700Z,98971.54
2019-04-07T15:15:36.859Z,98979.29
2019-04-07T15:18:05.116Z,98980.20
2019-04-07T15:20:34.344Z,98982.30
2019-04-07T15:23:02.908Z,98988.48
2019-04-07T15:25:31.347Z,98991.09
2019-04-07T15:28:00.374Z,98986.86
2019-04-07T15:30:29.986Z,98987.52
2019-04-07T15:33:01.237Z,98989.02
2019-04-07T15:35:29.623Z,98987.61
2019-04-07T15:37:57.867Z,98986.91
2019-04-07T15:40:26.004Z,98993.59
2019-04-07T15:42:54.131Z,98993.02
2019-04-07T15:45:23.394Z,98994.84
2019-04-07T15:47:53.872Z,98999.98
2019-04-07T15:50:22.577Z,98992.04
2019-04-07T15:52:50.873Z,98992.64
2019-04-07T15:55:19.689Z,98998.62
2019-04-07T15:57:48.060Z,98998.19
2019-04-07T16:00:16.766Z,99001.94
2019-04-07T16:02:46.024Z,99008.09
2019-04-07T16:05:14.813Z,99011.77
2019-04-07T16:07:43.818Z,99014.40
2019-04-07T16:10:15.085Z,99014.00
2019-04-07T16:12:49.631Z,99016.40
2019-04-07T16:15:16.518Z,99028.95
2019-04-07T16:17:47.376Z,99032.59
2019-04-07T16:20:23.100Z,99027.16
2019-04-07T16:22:49.010Z,99030.23
2019-04-07T16:25:16.946Z,99029.14
2019-04-07T16:27:45.722Z,99031.38
2019-04-07T16:30:17.367Z,99038.98
2019-04-07T16:32:44.954Z,99036.98
2019-04-07T16:35:16.374Z,99043.60
2019-04-07T16:37:44.522Z,99049.20
2019-04-07T16:40:14.385Z,99047.63
2019-04-07T16:42:48.891Z,99054.75
2019-04-07T16:45:16.406Z,99061.47
2019-04-07T16:47:45.454Z,99060.85
2019-04-07T16:50:18.059Z,99061.26
2019-04-07T16:52:47.143Z,99065.02
2019-04-07T16:55:41.755Z,99063.52
2019-04-07T16:58:11.619Z,99070.52
2019-04-07T17:00:40.259Z,99070.05
2019-04-07T17:03:09.725Z,99072.08
2019-04-07T17:05:39.656Z,99070.36
2019-04-07T17:08:08.665Z,99076.13
2019-04-07T17:10:37.230Z,99078.47
2019-04-07T17:13:17.059Z,99077.88
2019-04-07T17:15:39.455Z,99083.53
2019-04-07T17:18:09.919Z,99081.92
2019-04-07T17:20:42.855Z,99079.51
2019-04-07T17:23:18.563Z,99087.91
2019-04-07T17:25:45.145Z,99094.19
2019-04-07T17:28:14.155Z,99088.52
2019-04-07T17:30:43.293Z,99090.44
2019-04-07T17:33:12.347Z,99094.22
2019-04-07T17:35:43.253Z,99095.92
2019-04-07T17:38:12.248Z,99092.11
2019-04-07T17:40:47.221Z,99097.97
2019-04-07T17:43:49.419Z,99100.01
2019-04-07T17:46:40.704Z,99104.94
2019-04-07T17:49:30.900Z,99111.13
2019-04-07T17:52:16.796Z,99114.56
2019-04-07T17:55:21.894Z,99117.70
2019-04-07T17:58:11.569Z,99120.72
2019-04-07T18:01:06.231Z,99130.13
2019-04-07T18:03:56.628Z,99131.74
2019-04-07T18:06:40.820Z,99141.66
2019-04-07T18:09:23.406Z,99143.77
2019-04-07T18:12:12.841Z,99149.83
2019-04-07T18:15:03.624Z,99148.13
2019-04-07T18:17:51.700Z,99155.20
2019-04-07T18:20:48.623Z,99158.12
2019-04-07T18:23:38.702Z,99158.64
2019-04-07T18:26:45.245Z,99165.80
2019-04-07T18:29:52.833Z,99165.59
2019-04-07T18:32:46.397Z,99170.34
2019-04-07T18:35:34.798Z,99180.97
2019-04-07T18:38:21.788Z,99176.09
2019-04-07T18:41:10.726Z,99184.09
2019-04-07T18:44:04.630Z,99190.15
2019-04-07T18:46:53.299Z,99193.79
2019-04-07T18:49:52.412Z,99204.59
2019-04-07T18:52:54.321Z,99210.66
2019-04-07T18:56:01.477Z,99219.64
2019-04-07T18:58:47.084Z,99223.66
2019-04-07T19:01:41.345Z,99220.73
2019-04-07T19:04:17.357Z,99228.92
2019-04-07T19:06:55.846Z,99235.19
2019-04-07T19:09:49.578Z,99235.89
2019-04-07T19:12:47.703Z,99244.48
2019-04-07T19:15:40.033Z,99249.23
2019-04-07T19:18:28.317Z,99248.73
2019-04-07T19:21:14.851Z,99248.73
2019-04-07T19:24:02.511Z,99251.66
2019-04-07T19:26:52.248Z,99251.26
2019-04-07T19:29:26.704Z,99247.39
2019-04-07T19:32:27.157Z,99251.84
2019-04-07T19:35:15.258Z,99251.03
2019-04-07T19:38:03.081Z,99254.97
2019-04-07T19:40:49.191Z,99252.14
2019-04-07T19:43:44.444Z,99254.67
2019-04-07T19:46:31.549Z,99255.86
2019-04-07T19:49:25.830Z,99258.89
2019-04-07T19:52:12.680Z,99261.22
2019-04-07T19:54:53.628Z,99261.26
2019-04-07T19:57:46.904Z,99262.98
2019-04-07T20:00:41.571Z,99265.98
2019-04-07T20:03:37.770Z,99266.25
2019-04-07T20:06:13.228Z,99278.67
2019-04-07T20:09:12.554Z,99277.44
2019-04-07T20:11:55.050Z,99275.81
2019-04-07T20:14:52.719Z,99277.20
2019-04-07T20:17:34.937Z,99279.52
2019-04-07T20:20:12.583Z,99281.03
2019-04-07T20:23:16.009Z,99285.48
2019-04-07T20:26:01.687Z,99285.17
2019-04-07T20:28:41.208Z,99287.30
2019-04-07T20:31:19.439Z,99295.47
2019-04-07T20:34:06.219Z,99288.41
2019-04-07T20:36:57.704Z,99286.08
2019-04-07T20:39:51.677Z,99286.89
2019-04-07T20:42:36.755Z,99284.41
2019-04-07T20:45:24.090Z,99288.34
2019-04-07T20:48:15.784Z,99288.41
2019-04-07T20:51:09.241Z,99283.42
2019-04-07T20:54:03.419Z,99287.26
2019-04-07T20:56:48.422Z,99286.95
2019-04-07T20:59:46.963Z,99292.87
2019-04-07T21:02:23.638Z,99289.64
2019-04-07T21:05:02.940Z,99292.34
2019-04-07T21:07:54.826Z,99294.92
2019-04-07T21:10:45.652Z,99294.01
2019-04-07T21:13:39.533Z,99291.08
2019-04-07T21:16:33.089Z,99292.59
2019-04-07T21:19:23.723Z,99280.95
2019-04-07T21:22:14.127Z,99279.98
2019-04-07T21:24:58.678Z,99287.84
2019-04-07T21:27:38.776Z,99298.45
2019-04-07T21:30:27.011Z,99294.71
2019-04-07T21:33:09.662Z,99288.96
2019-04-07T21:35:44.779Z,99290.95
2019-04-07T21:38:41.356Z,99287.71
2019-04-07T21:41:29.066Z,99294.27
2019-04-07T21:44:32.324Z,99298.10
2019-04-07T21:47:38.580Z,99291.41
2019-04-07T21:50:38.420Z,99293.42
2019-04-07T21:53:12.605Z,99291.20
2019-04-07T21:55:55.722Z,99290.89
2019-04-07T21:58:42.463Z,99294.31
2019-04-07T22:01:16.665Z,99295.62
2019-04-07T22:03:50.408Z,99298.75
2019-04-07T22:06:40.618Z,99295.49
2019-04-07T22:09:15.907Z,99291.55
2019-04-07T22:11:45.067Z,99288.73
2019-04-07T22:14:14.637Z,99287.32
2019-04-07T22:16:42.878Z,99291.95
2019-04-07T22:19:14.740Z,99296.25
2019-04-07T22:21:41.234Z,99293.33
2019-04-07T22:24:09.563Z,99294.94
2019-04-07T22:26:37.648Z,99295.95
2019-04-07T22:29:05.709Z,99301.00
2019-04-07T22:31:45.572Z,99298.88
2019-04-07T22:34:14.842Z,99300.69
2019-04-07T22:36:45.458Z,99296.95
2019-04-07T22:39:14.098Z,99297.56
2019-04-07T22:41:44.124Z,99296.65
2019-04-07T22:44:12.252Z,99303.56
2019-04-07T22:46:40.295Z,99298.22
2019-04-07T22:49:09.300Z,99304.97
2019-04-07T22:51:38.158Z,99301.53
2019-04-07T22:54:06.258Z,99299.58
2019-04-07T22:56:36.671Z,99300.28
2019-04-07T22:59:04.529Z,99300.78
2019-04-07T23:01:33.359Z,99304.61
2019-04-07T23:04:01.584Z,99306.42
2019-04-07T23:06:29.623Z,99301.68
2019-04-07T23:08:57.664Z,99311.16
2019-04-07T23:11:26.162Z,99320.45
2019-04-07T23:13:54.237Z,99324.99
2019-04-07T23:16:22.273Z,99318.74
2019-04-07T23:18:50.627Z,99320.70
2019-04-07T23:21:19.208Z,99325.94
2019-04-07T23:23:48.249Z,99321.37
2019-04-07T23:26:16.374Z,99321.37
2019-04-07T23:28:44.451Z,99316.32
2019-04-07T23:31:13.664Z,99320.25
2019-04-07T23:33:42.202Z,99313.20
2019-04-07T23:36:10.226Z,99317.43
2019-04-07T23:38:39.003Z,99323.13
2019-04-07T23:41:07.159Z,99321.81
2019-04-07T23:43:35.558Z,99322.12
2019-04-07T23:46:05.000Z,99323.42
2019-04-07T23:48:33.172Z,99332.41
2019-04-07T23:51:01.684Z,99328.47
2019-04-07T23:54:12.528Z,99327.50
2019-04-07T23:56:43.643Z,99331.91
2019-04-07T23:59:12.186Z,99327.16
